sensor_id;sensor_type;location;lat;lon;timestamp;temperature;humidity
11423;DHT22;5768;51.476;7.210;2022-09-21T00:00:10;10.50;23.10
11423;DHT22;5768;51.476;7.210;2022-09-21T00:05:14;10.40;23.00
11423;DHT22;5768;51.476;7.210;2022-09-21T00:10:17;10.40;23.00
11423;DHT22;5768;51.476;7.210;2022-09-21T00:15:20;10.30;23.90
11423;DHT22;5768;51.476;7.210;2022-09-21T00:20:25;10.30;23.90
11423;DHT22;5768;51.476;7.210;2022-09-21T00:25:27;10.10;23.80
11423;DHT22;5768;51.476;7.210;2022-09-21T00:30:29;9.90;23.50
11423;DHT22;5768;51.476;7.210;2022-09-21T00:35:33;10.20;23.90
11423;DHT22;5768;51.476;7.210;2022-09-21T00:40:35;10.20;24.30
11423;DHT22;5768;51.476;7.210;2022-09-21T00:45:37;10.10;23.90
11423;DHT22;5768;51.476;7.210;2022-09-21T00:50:45;10.10;24.00
11423;DHT22;5768;51.476;7.210;2022-09-21T00:55:53;10.10;24.20
11423;DHT22;5768;51.476;7.210;2022-09-21T01:00:57;10.00;24.00
11423;DHT22;5768;51.476;7.210;2022-09-21T01:06:02;10.00;23.80
11423;DHT22;5768;51.476;7.210;2022-09-21T01:11:17;9.90;24.00
11423;DHT22;5768;51.476;7.210;2022-09-21T01:16:34;9.90;24.10
11423;DHT22;5768;51.476;7.210;2022-09-21T01:21:47;9.50;24.60
11423;DHT22;5768;51.476;7.210;2022-09-21T01:32:59;9.80;24.90
11423;DHT22;5768;51.476;7.210;2022-09-21T01:38:08;9.80;24.30
11423;DHT22;5768;51.476;7.210;2022-09-21T01:43:14;9.70;24.40
11423;DHT22;5768;51.476;7.210;2022-09-21T01:48:31;9.70;25.00
11423;DHT22;5768;51.476;7.210;2022-09-21T01:53:38;9.80;25.00
11423;DHT22;5768;51.476;7.210;2022-09-21T01:58:48;9.70;25.30
11423;DHT22;5768;51.476;7.210;2022-09-21T02:03:59;9.70;25.20
11423;DHT22;5768;51.476;7.210;2022-09-21T02:09:06;9.80;25.00
11423;DHT22;5768;51.476;7.210;2022-09-21T02:14:10;9.90;25.10
11423;DHT22;5768;51.476;7.210;2022-09-21T02:19:20;9.80;25.20
11423;DHT22;5768;51.476;7.210;2022-09-21T02:24:34;9.80;25.30
11423;DHT22;5768;51.476;7.210;2022-09-21T02:29:47;9.70;25.40
11423;DHT22;5768;51.476;7.210;2022-09-21T02:34:59;9.70;25.00
11423;DHT22;5768;51.476;7.210;2022-09-21T02:40:09;9.60;25.50
11423;DHT22;5768;51.476;7.210;2022-09-21T02:45:24;9.60;25.10
11423;DHT22;5768;51.476;7.210;2022-09-21T02:50:34;9.60;25.10
11423;DHT22;5768;51.476;7.210;2022-09-21T02:55:41;9.50;25.00
11423;DHT22;5768;51.476;7.210;2022-09-21T03:00:54;9.50;24.40
11423;DHT22;5768;51.476;7.210;2022-09-21T03:06:05;9.50;24.40
11423;DHT22;5768;51.476;7.210;2022-09-21T03:11:08;9.40;24.60
11423;DHT22;5768;51.476;7.210;2022-09-21T03:16:12;9.40;25.10
11423;DHT22;5768;51.476;7.210;2022-09-21T03:21:16;9.40;25.00
11423;DHT22;5768;51.476;7.210;2022-09-21T03:26:18;9.40;25.10
11423;DHT22;5768;51.476;7.210;2022-09-21T03:31:21;9.40;25.00
11423;DHT22;5768;51.476;7.210;2022-09-21T03:36:25;9.40;25.30
11423;DHT22;5768;51.476;7.210;2022-09-21T03:41:27;9.40;25.20
11423;DHT22;5768;51.476;7.210;2022-09-21T03:46:29;9.30;25.20
11423;DHT22;5768;51.476;7.210;2022-09-21T03:51:36;9.40;25.20
11423;DHT22;5768;51.476;7.210;2022-09-21T03:56:39;9.40;25.80
11423;DHT22;5768;51.476;7.210;2022-09-21T04:01:41;9.30;25.90
11423;DHT22;5768;51.476;7.210;2022-09-21T04:06:45;9.30;25.60
11423;DHT22;5768;51.476;7.210;2022-09-21T04:11:47;9.30;25.40
11423;DHT22;5768;51.476;7.210;2022-09-21T04:16:49;9.20;25.50
11423;DHT22;5768;51.476;7.210;2022-09-21T04:21:53;9.20;25.10
11423;DHT22;5768;51.476;7.210;2022-09-21T04:26:55;9.10;25.60
11423;DHT22;5768;51.476;7.210;2022-09-21T04:31:57;9.10;26.00
11423;DHT22;5768;51.476;7.210;2022-09-21T04:37:01;9.00;26.10
11423;DHT22;5768;51.476;7.210;2022-09-21T04:42:03;9.10;26.40
11423;DHT22;5768;51.476;7.210;2022-09-21T04:47:06;9.00;26.40
11423;DHT22;5768;51.476;7.210;2022-09-21T04:57:13;8.90;22.50
11423;DHT22;5768;51.476;7.210;2022-09-21T05:02:15;9.00;22.90
11423;DHT22;5768;51.476;7.210;2022-09-21T05:07:19;8.90;22.90
11423;DHT22;5768;51.476;7.210;2022-09-21T05:12:21;8.90;22.60
11423;DHT22;5768;51.476;7.210;2022-09-21T05:17:23;8.90;22.70
11423;DHT22;5768;51.476;7.210;2022-09-21T05:22:27;8.90;22.70
11423;DHT22;5768;51.476;7.210;2022-09-21T05:27:29;8.90;22.60
11423;DHT22;5768;51.476;7.210;2022-09-21T05:32:41;9.00;22.70
11423;DHT22;5768;51.476;7.210;2022-09-21T05:37:54;9.00;22.60
11423;DHT22;5768;51.476;7.210;2022-09-21T05:43:00;9.00;22.70
11423;DHT22;5768;51.476;7.210;2022-09-21T05:48:10;9.00;22.70
11423;DHT22;5768;51.476;7.210;2022-09-21T05:59:08;9.30;22.60
11423;DHT22;5768;51.476;7.210;2022-09-21T06:04:24;9.40;22.40
11423;DHT22;5768;51.476;7.210;2022-09-21T06:09:28;9.50;22.40
11423;DHT22;5768;51.476;7.210;2022-09-21T06:14:30;9.70;22.40
11423;DHT22;5768;51.476;7.210;2022-09-21T06:19:32;9.80;22.10
11423;DHT22;5768;51.476;7.210;2022-09-21T06:24:35;10.00;22.00
11423;DHT22;5768;51.476;7.210;2022-09-21T06:29:38;10.10;21.80
11423;DHT22;5768;51.476;7.210;2022-09-21T06:34:40;10.30;21.60
11423;DHT22;5768;51.476;7.210;2022-09-21T06:39:44;10.50;21.50
11423;DHT22;5768;51.476;7.210;2022-09-21T06:44:46;10.70;21.20
11423;DHT22;5768;51.476;7.210;2022-09-21T06:49:48;10.90;21.10
11423;DHT22;5768;51.476;7.210;2022-09-21T06:54:52;11.00;21.00
11423;DHT22;5768;51.476;7.210;2022-09-21T06:59:54;11.20;20.90
11423;DHT22;5768;51.476;7.210;2022-09-21T07:04:56;11.30;20.80
11423;DHT22;5768;51.476;7.210;2022-09-21T07:10:00;11.60;20.30
11423;DHT22;5768;51.476;7.210;2022-09-21T07:15:04;11.70;20.30
11423;DHT22;5768;51.476;7.210;2022-09-21T07:20:08;11.90;20.20
11423;DHT22;5768;51.476;7.210;2022-09-21T07:25:11;12.20;19.90
11423;DHT22;5768;51.476;7.210;2022-09-21T07:30:13;12.40;19.70
11423;DHT22;5768;51.476;7.210;2022-09-21T07:35:16;12.60;19.40
11423;DHT22;5768;51.476;7.210;2022-09-21T07:40:21;12.90;19.20
11423;DHT22;5768;51.476;7.210;2022-09-21T07:45:23;13.10;19.00
11423;DHT22;5768;51.476;7.210;2022-09-21T07:50:26;13.30;18.70
11423;DHT22;5768;51.476;7.210;2022-09-21T07:55:30;13.40;18.70
11423;DHT22;5768;51.476;7.210;2022-09-21T08:00:32;13.60;18.30
11423;DHT22;5768;51.476;7.210;2022-09-21T08:05:35;13.80;17.80
11423;DHT22;5768;51.476;7.210;2022-09-21T08:10:38;14.10;17.40
11423;DHT22;5768;51.476;7.210;2022-09-21T08:15:40;14.20;17.40
11423;DHT22;5768;51.476;7.210;2022-09-21T08:20:43;14.40;16.90
11423;DHT22;5768;51.476;7.210;2022-09-21T08:25:47;14.60;16.70
11423;DHT22;5768;51.476;7.210;2022-09-21T08:30:49;14.80;16.20
11423;DHT22;5768;51.476;7.210;2022-09-21T08:35:52;15.00;15.80
11423;DHT22;5768;51.476;7.210;2022-09-21T08:40:55;15.10;15.90
11423;DHT22;5768;51.476;7.210;2022-09-21T08:45:59;15.20;15.60
11423;DHT22;5768;51.476;7.210;2022-09-21T08:51:07;15.40;15.20
11423;DHT22;5768;51.476;7.210;2022-09-21T08:56:15;15.40;15.20
11423;DHT22;5768;51.476;7.210;2022-09-21T09:01:30;15.50;15.20
11423;DHT22;5768;51.476;7.210;2022-09-21T09:06:55;15.50;14.60
11423;DHT22;5768;51.476;7.210;2022-09-21T09:12:24;15.70;14.70
11423;DHT22;5768;51.476;7.210;2022-09-21T09:17:50;15.90;14.50
11423;DHT22;5768;51.476;7.210;2022-09-21T09:23:04;16.00;14.40
11423;DHT22;5768;51.476;7.210;2022-09-21T09:28:20;16.20;14.40
11423;DHT22;5768;51.476;7.210;2022-09-21T09:33:36;16.20;14.20
11423;DHT22;5768;51.476;7.210;2022-09-21T09:38:55;16.20;14.20
11423;DHT22;5768;51.476;7.210;2022-09-21T09:44:12;16.40;13.80
11423;DHT22;5768;51.476;7.210;2022-09-21T09:49:34;16.60;13.90
11423;DHT22;5768;51.476;7.210;2022-09-21T09:54:40;16.70;13.90
11423;DHT22;5768;51.476;7.210;2022-09-21T09:59:48;16.90;13.60
11423;DHT22;5768;51.476;7.210;2022-09-21T10:04:57;17.20;13.50
11423;DHT22;5768;51.476;7.210;2022-09-21T10:10:21;17.60;13.00
11423;DHT22;5768;51.476;7.210;2022-09-21T10:15:28;17.80;13.00
11423;DHT22;5768;51.476;7.210;2022-09-21T10:20:31;18.00;12.90
11423;DHT22;5768;51.476;7.210;2022-09-21T10:25:34;18.10;12.60
11423;DHT22;5768;51.476;7.210;2022-09-21T10:30:38;18.40;12.60
11423;DHT22;5768;51.476;7.210;2022-09-21T10:35:48;19.00;12.40
11423;DHT22;5768;51.476;7.210;2022-09-21T10:40:52;19.30;12.10
11423;DHT22;5768;51.476;7.210;2022-09-21T10:45:56;19.50;12.10
11423;DHT22;5768;51.476;7.210;2022-09-21T10:50:59;19.60;12.10
11423;DHT22;5768;51.476;7.210;2022-09-21T10:56:04;19.80;12.00
11423;DHT22;5768;51.476;7.210;2022-09-21T11:01:11;19.80;12.10
11423;DHT22;5768;51.476;7.210;2022-09-21T11:06:24;20.00;11.80
11423;DHT22;5768;51.476;7.210;2022-09-21T11:11:42;19.60;11.20
11423;DHT22;5768;51.476;7.210;2022-09-21T11:16:55;19.40;11.30
11423;DHT22;5768;51.476;7.210;2022-09-21T11:22:05;19.20;11.40
11423;DHT22;5768;51.476;7.210;2022-09-21T11:27:13;19.60;11.40
11423;DHT22;5768;51.476;7.210;2022-09-21T11:32:34;19.50;11.20
11423;DHT22;5768;51.476;7.210;2022-09-21T11:37:50;20.50;11.40
11423;DHT22;5768;51.476;7.210;2022-09-21T11:43:11;20.80;11.20
11423;DHT22;5768;51.476;7.210;2022-09-21T11:48:35;21.00;11.10
11423;DHT22;5768;51.476;7.210;2022-09-21T11:54:14;21.80;10.90
11423;DHT22;5768;51.476;7.210;2022-09-21T11:59:42;22.30;10.70
11423;DHT22;5768;51.476;7.210;2022-09-21T12:04:59;22.40;10.60
11423;DHT22;5768;51.476;7.210;2022-09-21T12:10:32;23.10;10.30
11423;DHT22;5768;51.476;7.210;2022-09-21T12:15:43;23.70;10.00
11423;DHT22;5768;51.476;7.210;2022-09-21T12:20:57;24.30;9.90
11423;DHT22;5768;51.476;7.210;2022-09-21T12:26:06;24.60;9.60
11423;DHT22;5768;51.476;7.210;2022-09-21T12:31:13;25.50;9.40
11423;DHT22;5768;51.476;7.210;2022-09-21T12:36:24;26.30;9.10
11423;DHT22;5768;51.476;7.210;2022-09-21T12:41:36;26.60;8.80
11423;DHT22;5768;51.476;7.210;2022-09-21T12:46:47;26.10;8.80
11423;DHT22;5768;51.476;7.210;2022-09-21T12:52:00;26.30;8.70
11423;DHT22;5768;51.476;7.210;2022-09-21T12:57:10;26.40;8.50
11423;DHT22;5768;51.476;7.210;2022-09-21T13:02:32;25.80;8.90
11423;DHT22;5768;51.476;7.210;2022-09-21T13:07:58;25.70;8.80
11423;DHT22;5768;51.476;7.210;2022-09-21T13:13:13;25.30;9.20
11423;DHT22;5768;51.476;7.210;2022-09-21T13:18:25;24.80;9.00
11423;DHT22;5768;51.476;7.210;2022-09-21T13:23:36;24.60;9.10
11423;DHT22;5768;51.476;7.210;2022-09-21T13:34:37;24.30;9.10
11423;DHT22;5768;51.476;7.210;2022-09-21T13:39:44;27.80;8.50
11423;DHT22;5768;51.476;7.210;2022-09-21T13:44:49;30.30;7.90
11423;DHT22;5768;51.476;7.210;2022-09-21T13:49:51;31.30;7.60
11423;DHT22;5768;51.476;7.210;2022-09-21T13:54:57;30.70;7.40
11423;DHT22;5768;51.476;7.210;2022-09-21T14:00:22;30.40;7.50
11423;DHT22;5768;51.476;7.210;2022-09-21T14:05:34;30.50;7.30
11423;DHT22;5768;51.476;7.210;2022-09-21T14:10:50;33.20;7.10
11423;DHT22;5768;51.476;7.210;2022-09-21T14:16:25;32.40;6.90
11423;DHT22;5768;51.476;7.210;2022-09-21T14:27:42;34.40;6.70
11423;DHT22;5768;51.476;7.210;2022-09-21T14:32:48;36.10;6.40
11423;DHT22;5768;51.476;7.210;2022-09-21T14:37:56;35.70;6.30
11423;DHT22;5768;51.476;7.210;2022-09-21T14:43:06;31.80;6.70
11423;DHT22;5768;51.476;7.210;2022-09-21T14:48:16;31.00;6.90
11423;DHT22;5768;51.476;7.210;2022-09-21T14:53:33;33.10;6.50
11423;DHT22;5768;51.476;7.210;2022-09-21T14:59:15;35.40;6.20
11423;DHT22;5768;51.476;7.210;2022-09-21T15:04:53;36.70;6.10
11423;DHT22;5768;51.476;7.210;2022-09-21T15:10:23;37.20;5.80
11423;DHT22;5768;51.476;7.210;2022-09-21T15:16:01;38.40;5.70
11423;DHT22;5768;51.476;7.210;2022-09-21T15:21:22;38.80;5.50
11423;DHT22;5768;51.476;7.210;2022-09-21T15:26:35;39.50;5.40
11423;DHT22;5768;51.476;7.210;2022-09-21T15:31:41;39.70;5.40
11423;DHT22;5768;51.476;7.210;2022-09-21T15:36:43;39.70;5.50
11423;DHT22;5768;51.476;7.210;2022-09-21T15:42:04;38.70;5.40
11423;DHT22;5768;51.476;7.210;2022-09-21T15:47:21;38.80;5.50
11423;DHT22;5768;51.476;7.210;2022-09-21T15:52:29;39.10;5.50
11423;DHT22;5768;51.476;7.210;2022-09-21T15:57:36;38.50;5.50
11423;DHT22;5768;51.476;7.210;2022-09-21T16:02:55;38.30;5.50
11423;DHT22;5768;51.476;7.210;2022-09-21T16:08:06;37.90;5.50
11423;DHT22;5768;51.476;7.210;2022-09-21T16:13:19;37.60;5.60
11423;DHT22;5768;51.476;7.210;2022-09-21T16:18:46;37.10;5.80
11423;DHT22;5768;51.476;7.210;2022-09-21T16:23:51;36.40;5.80
11423;DHT22;5768;51.476;7.210;2022-09-21T16:28:58;35.60;6.00
11423;DHT22;5768;51.476;7.210;2022-09-21T16:34:29;32.90;6.30
11423;DHT22;5768;51.476;7.210;2022-09-21T16:39:36;30.10;7.00
11423;DHT22;5768;51.476;7.210;2022-09-21T16:44:39;27.90;7.30
11423;DHT22;5768;51.476;7.210;2022-09-21T16:49:45;26.30;7.80
11423;DHT22;5768;51.476;7.210;2022-09-21T16:54:47;25.10;8.10
11423;DHT22;5768;51.476;7.210;2022-09-21T16:59:50;24.20;8.30
11423;DHT22;5768;51.476;7.210;2022-09-21T17:04:54;23.50;8.40
11423;DHT22;5768;51.476;7.210;2022-09-21T17:09:56;23.00;8.70
11423;DHT22;5768;51.476;7.210;2022-09-21T17:15:04;22.40;8.70
11423;DHT22;5768;51.476;7.210;2022-09-21T17:20:30;21.80;9.00
11423;DHT22;5768;51.476;7.210;2022-09-21T17:25:35;21.20;9.50
11423;DHT22;5768;51.476;7.210;2022-09-21T17:30:38;20.70;9.60
11423;DHT22;5768;51.476;7.210;2022-09-21T17:35:43;20.30;9.90
11423;DHT22;5768;51.476;7.210;2022-09-21T17:40:45;19.90;10.30
11423;DHT22;5768;51.476;7.210;2022-09-21T17:45:51;19.40;10.50
11423;DHT22;5768;51.476;7.210;2022-09-21T17:51:00;19.00;10.70
11423;DHT22;5768;51.476;7.210;2022-09-21T17:56:16;18.60;10.90
11423;DHT22;5768;51.476;7.210;2022-09-21T18:01:30;18.20;11.20
11423;DHT22;5768;51.476;7.210;2022-09-21T18:06:36;18.00;11.30
11423;DHT22;5768;51.476;7.210;2022-09-21T18:11:49;17.80;11.60
11423;DHT22;5768;51.476;7.210;2022-09-21T18:17:14;17.70;11.60
11423;DHT22;5768;51.476;7.210;2022-09-21T18:22:40;17.50;11.70
11423;DHT22;5768;51.476;7.210;2022-09-21T18:27:50;17.30;11.90
11423;DHT22;5768;51.476;7.210;2022-09-21T18:33:05;16.90;12.00
11423;DHT22;5768;51.476;7.210;2022-09-21T18:38:20;16.70;12.20
11423;DHT22;5768;51.476;7.210;2022-09-21T18:43:32;16.50;12.40
11423;DHT22;5768;51.476;7.210;2022-09-21T18:48:50;16.50;12.60
11423;DHT22;5768;51.476;7.210;2022-09-21T18:53:58;16.20;12.70
11423;DHT22;5768;51.476;7.210;2022-09-21T18:59:01;16.20;13.00
11423;DHT22;5768;51.476;7.210;2022-09-21T19:04:06;15.80;13.30
11423;DHT22;5768;51.476;7.210;2022-09-21T19:09:22;15.60;13.50
11423;DHT22;5768;51.476;7.210;2022-09-21T19:14:37;15.60;13.60
11423;DHT22;5768;51.476;7.210;2022-09-21T19:19:57;15.40;13.60
11423;DHT22;5768;51.476;7.210;2022-09-21T19:25:16;15.20;13.80
11423;DHT22;5768;51.476;7.210;2022-09-21T19:30:25;15.00;13.80
11423;DHT22;5768;51.476;7.210;2022-09-21T19:35:29;15.00;13.90
11423;DHT22;5768;51.476;7.210;2022-09-21T19:40:37;14.90;13.80
11423;DHT22;5768;51.476;7.210;2022-09-21T19:45:46;14.90;14.00
11423;DHT22;5768;51.476;7.210;2022-09-21T19:51:04;14.80;14.10
11423;DHT22;5768;51.476;7.210;2022-09-21T19:56:10;14.60;14.10
11423;DHT22;5768;51.476;7.210;2022-09-21T20:01:34;14.60;14.20
11423;DHT22;5768;51.476;7.210;2022-09-21T20:06:46;14.40;14.30
11423;DHT22;5768;51.476;7.210;2022-09-21T20:12:04;14.30;14.30
11423;DHT22;5768;51.476;7.210;2022-09-21T20:17:13;14.10;14.40
11423;DHT22;5768;51.476;7.210;2022-09-21T20:22:28;14.10;14.60
11423;DHT22;5768;51.476;7.210;2022-09-21T20:27:38;14.00;14.60
11423;DHT22;5768;51.476;7.210;2022-09-21T20:32:47;14.00;14.70
11423;DHT22;5768;51.476;7.210;2022-09-21T20:37:50;13.80;14.90
11423;DHT22;5768;51.476;7.210;2022-09-21T20:42:55;13.70;15.00
11423;DHT22;5768;51.476;7.210;2022-09-21T20:47:58;13.60;15.10
11423;DHT22;5768;51.476;7.210;2022-09-21T20:53:12;13.60;15.20
11423;DHT22;5768;51.476;7.210;2022-09-21T20:58:16;13.50;15.30
11423;DHT22;5768;51.476;7.210;2022-09-21T21:03:18;13.40;15.40
11423;DHT22;5768;51.476;7.210;2022-09-21T21:08:20;13.20;15.50
11423;DHT22;5768;51.476;7.210;2022-09-21T21:13:24;13.10;15.60
11423;DHT22;5768;51.476;7.210;2022-09-21T21:18:29;13.10;15.60
11423;DHT22;5768;51.476;7.210;2022-09-21T21:23:32;13.00;15.70
11423;DHT22;5768;51.476;7.210;2022-09-21T21:28:55;13.10;15.70
11423;DHT22;5768;51.476;7.210;2022-09-21T21:33:57;12.70;15.90
11423;DHT22;5768;51.476;7.210;2022-09-21T21:39:00;12.60;15.90
11423;DHT22;5768;51.476;7.210;2022-09-21T21:44:03;12.60;16.00
11423;DHT22;5768;51.476;7.210;2022-09-21T21:49:05;12.60;16.00
11423;DHT22;5768;51.476;7.210;2022-09-21T21:54:08;12.60;16.00
11423;DHT22;5768;51.476;7.210;2022-09-21T21:59:11;12.50;16.10
11423;DHT22;5768;51.476;7.210;2022-09-21T22:04:14;12.50;16.00
11423;DHT22;5768;51.476;7.210;2022-09-21T22:09:16;12.40;16.10
11423;DHT22;5768;51.476;7.210;2022-09-21T22:14:20;12.40;16.30
11423;DHT22;5768;51.476;7.210;2022-09-21T22:19:22;12.30;16.40
11423;DHT22;5768;51.476;7.210;2022-09-21T22:24:24;12.20;16.50
11423;DHT22;5768;51.476;7.210;2022-09-21T22:29:28;12.10;16.50
11423;DHT22;5768;51.476;7.210;2022-09-21T22:34:30;12.10;16.80
11423;DHT22;5768;51.476;7.210;2022-09-21T22:39:32;12.10;17.00
11423;DHT22;5768;51.476;7.210;2022-09-21T22:44:36;12.00;17.10
11423;DHT22;5768;51.476;7.210;2022-09-21T22:49:38;12.00;17.00
11423;DHT22;5768;51.476;7.210;2022-09-21T22:54:40;11.90;17.30
11423;DHT22;5768;51.476;7.210;2022-09-21T22:59:44;11.80;17.50
11423;DHT22;5768;51.476;7.210;2022-09-21T23:04:46;11.70;17.70
11423;DHT22;5768;51.476;7.210;2022-09-21T23:09:48;11.70;17.70
11423;DHT22;5768;51.476;7.210;2022-09-21T23:14:52;11.70;17.70
11423;DHT22;5768;51.476;7.210;2022-09-21T23:19:54;11.70;17.80
11423;DHT22;5768;51.476;7.210;2022-09-21T23:24:56;11.60;17.60
11423;DHT22;5768;51.476;7.210;2022-09-21T23:30:00;11.60;17.60
11423;DHT22;5768;51.476;7.210;2022-09-21T23:35:02;11.50;17.80
11423;DHT22;5768;51.476;7.210;2022-09-21T23:40:06;11.40;17.90
11423;DHT22;5768;51.476;7.210;2022-09-21T23:45:11;11.30;18.00
11423;DHT22;5768;51.476;7.210;2022-09-21T23:50:13;11.30;18.10
11423;DHT22;5768;51.476;7.210;2022-09-21T23:55:15;11.30;18.20
